createdAt,value
2023-03-11T00:00:48.775Z,94.24
2023-03-11T00:03:18.886Z,93.54
2023-03-11T00:05:49.020Z,93.50
2023-03-11T00:08:22.929Z,93.36
2023-03-11T00:10:58.804Z,93.50
2023-03-11T00:13:27.745Z,94.41
2023-03-11T00:15:59.566Z,94.02
2023-03-11T00:18:32.459Z,95.15
2023-03-11T00:21:01.147Z,94.04
2023-03-11T00:23:30.653Z,94.14
2023-03-11T00:26:03.016Z,94.26
2023-03-11T00:28:31.171Z,94.80
2023-03-11T00:30:59.264Z,93.92
2023-03-11T00:33:26.179Z,93.87
2023-03-11T00:35:53.360Z,93.01
2023-03-11T00:38:21.401Z,92.87
2023-03-11T00:40:53.981Z,92.46
2023-03-11T00:43:23.138Z,92.40
2023-03-11T00:45:50.036Z,93.18
2023-03-11T00:48:17.038Z,93.36
2023-03-11T00:50:46.591Z,92.92
2023-03-11T00:53:16.088Z,92.54
2023-03-11T00:55:43.070Z,92.20
2023-03-11T00:58:11.638Z,92.87
2023-03-11T01:00:41.372Z,91.69
2023-03-11T01:03:13.136Z,91.38
2023-03-11T01:05:40.603Z,91.47
2023-03-11T01:08:10.054Z,92.28
2023-03-11T01:10:39.415Z,90.66
2023-03-11T01:13:06.395Z,91.76
2023-03-11T01:15:39.177Z,91.89
2023-03-11T01:18:07.047Z,92.91
2023-03-11T01:20:39.063Z,93.78
2023-03-11T01:23:09.244Z,93.25
2023-03-11T01:25:36.793Z,94.28
2023-03-11T01:28:05.536Z,93.48
2023-03-11T01:30:32.641Z,92.43
2023-03-11T01:33:01.049Z,92.30
2023-03-11T01:35:32.625Z,93.04
2023-03-11T01:38:02.228Z,93.11
2023-03-11T01:40:40.977Z,91.98
2023-03-11T01:43:43.057Z,92.94
2023-03-11T01:46:54.331Z,92.64
2023-03-11T01:49:22.525Z,91.74
2023-03-11T01:52:08.734Z,91.89
2023-03-11T01:54:40.682Z,92.13
2023-03-11T01:57:15.621Z,92.00
2023-03-11T01:59:52.393Z,91.36
2023-03-11T02:02:25.486Z,91.39
2023-03-11T02:04:56.936Z,89.78
2023-03-11T02:07:26.071Z,90.81
2023-03-11T02:09:53.076Z,90.91
2023-03-11T02:12:28.336Z,90.88
2023-03-11T02:14:55.457Z,90.76
2023-03-11T02:17:25.022Z,90.68
2023-03-11T02:20:28.824Z,91.00
2023-03-11T02:22:57.495Z,90.58
2023-03-11T02:25:54.550Z,89.77
2023-03-11T02:28:22.809Z,90.83
2023-03-11T02:30:51.128Z,91.62
2023-03-11T02:33:22.072Z,90.44
2023-03-11T02:35:51.725Z,89.50
2023-03-11T02:38:21.611Z,89.70
2023-03-11T02:40:56.715Z,90.24
2023-03-11T02:43:33.885Z,89.50
2023-03-11T02:46:04.355Z,88.73
2023-03-11T02:48:31.598Z,89.44
2023-03-11T02:51:01.363Z,89.38
2023-03-11T02:53:36.792Z,88.71
2023-03-11T02:56:04.113Z,89.72
2023-03-11T02:58:35.804Z,89.21
2023-03-11T03:01:05.583Z,88.70
2023-03-11T03:03:32.508Z,89.79
2023-03-11T03:06:04.649Z,90.28
2023-03-11T03:08:31.739Z,89.48
2023-03-11T03:10:59.912Z,89.42
2023-03-11T03:13:32.211Z,89.03
2023-03-11T03:16:00.389Z,88.50
2023-03-11T03:18:27.438Z,87.74
2023-03-11T03:20:54.828Z,87.75
2023-03-11T03:23:24.286Z,87.69
2023-03-11T03:25:53.938Z,88.53
2023-03-11T03:28:20.837Z,87.01
2023-03-11T03:30:50.338Z,86.91
2023-03-11T03:33:17.291Z,86.09
2023-03-11T03:35:45.592Z,86.69
2023-03-11T03:38:17.166Z,86.46
2023-03-11T03:40:52.298Z,86.09
2023-03-11T03:43:22.457Z,86.13
2023-03-11T03:46:01.638Z,85.27
2023-03-11T03:48:33.582Z,85.29
2023-03-11T03:51:11.550Z,86.63
2023-03-11T03:53:38.789Z,87.00
2023-03-11T03:56:12.322Z,86.44
2023-03-11T03:58:39.275Z,85.77
2023-03-11T04:01:09.654Z,85.14
2023-03-11T04:03:39.615Z,85.44
2023-03-11T04:06:14.261Z,85.32
2023-03-11T04:08:43.829Z,86.30
2023-03-11T04:11:11.008Z,86.33
2023-03-11T04:13:40.466Z,86.47
2023-03-11T04:16:08.169Z,84.73
2023-03-11T04:18:35.315Z,84.66
2023-03-11T04:21:06.815Z,85.66
2023-03-11T04:23:34.392Z,86.24
2023-03-11T04:26:04.731Z,86.95
2023-03-11T04:28:31.853Z,85.64
2023-03-11T04:31:01.550Z,85.13
2023-03-11T04:33:28.624Z,84.83
2023-03-11T04:35:58.066Z,85.39
2023-03-11T04:38:27.552Z,85.34
2023-03-11T04:40:54.585Z,85.15
2023-03-11T04:43:23.756Z,84.40
2023-03-11T04:45:53.151Z,84.80
2023-03-11T04:48:20.137Z,84.74
2023-03-11T04:50:49.331Z,85.00
2023-03-11T04:53:18.762Z,84.77
2023-03-11T04:55:48.689Z,84.56
2023-03-11T04:58:15.606Z,84.68
2023-03-11T05:00:42.534Z,85.06
2023-03-11T05:03:11.866Z,83.91
2023-03-11T05:05:39.012Z,83.97
2023-03-11T05:08:06.282Z,83.78
2023-03-11T05:10:35.547Z,83.12
2023-03-11T05:13:04.986Z,83.47
2023-03-11T05:15:37.521Z,83.42
2023-03-11T05:18:05.329Z,84.30
2023-03-11T05:20:32.369Z,84.12
2023-03-11T05:23:01.889Z,83.29
2023-03-11T05:25:28.898Z,84.40
2023-03-11T05:27:55.855Z,83.74
2023-03-11T05:30:22.915Z,83.46
2023-03-11T05:32:50.277Z,83.39
2023-03-11T05:35:20.704Z,83.54
2023-03-11T05:37:53.571Z,83.66
2023-03-11T05:40:23.281Z,84.29
2023-03-11T05:42:50.284Z,83.62
2023-03-11T05:45:17.271Z,84.26
2023-03-11T05:47:44.178Z,83.52
2023-03-11T05:50:12.806Z,83.25
2023-03-11T05:52:42.299Z,83.10
2023-03-11T05:55:12.439Z,82.43
2023-03-11T05:57:40.293Z,81.73
2023-03-11T06:00:14.398Z,82.58
2023-03-11T06:02:41.908Z,82.65
2023-03-11T06:05:11.067Z,82.37
2023-03-11T06:07:39.899Z,82.10
2023-03-11T06:10:12.650Z,82.48
2023-03-11T06:12:44.205Z,82.89
2023-03-11T06:15:13.224Z,83.77
2023-03-11T06:17:40.092Z,83.73
2023-03-11T06:20:08.004Z,83.62
2023-03-11T06:22:39.970Z,83.32
2023-03-11T06:25:08.038Z,83.00
2023-03-11T06:27:35.210Z,83.24
2023-03-11T06:30:02.182Z,83.83
2023-03-11T06:32:29.719Z,84.00
2023-03-11T06:34:59.202Z,83.86
2023-03-11T06:37:26.218Z,82.82
2023-03-11T06:39:58.317Z,82.81
2023-03-11T06:42:25.473Z,82.45
2023-03-11T06:44:54.581Z,81.70
2023-03-11T06:47:21.535Z,82.68
2023-03-11T06:49:50.506Z,82.94
2023-03-11T06:52:20.536Z,81.46
2023-03-11T06:54:47.425Z,81.42
2023-03-11T06:57:14.427Z,81.01
2023-03-11T06:59:41.345Z,80.69
2023-03-11T07:02:14.571Z,78.32
2023-03-11T07:04:41.486Z,72.77
2023-03-11T07:07:08.398Z,67.00
2023-03-11T07:09:35.325Z,62.17
2023-03-11T07:12:07.931Z,56.45
2023-03-11T07:14:34.900Z,55.42
2023-03-11T07:17:02.512Z,51.92
2023-03-11T07:19:29.467Z,48.12
2023-03-11T07:21:59.300Z,47.33
2023-03-11T07:24:26.186Z,46.45
2023-03-11T07:26:55.307Z,43.98
2023-03-11T07:29:25.284Z,42.91
2023-03-11T07:31:54.587Z,41.47
2023-03-11T07:34:21.564Z,40.26
2023-03-11T07:36:48.403Z,40.35
2023-03-11T07:39:20.768Z,39.68
2023-03-11T07:41:47.722Z,39.45
2023-03-11T07:44:18.249Z,39.63
2023-03-11T07:46:50.226Z,38.26
2023-03-11T07:49:17.096Z,38.83
2023-03-11T07:51:46.525Z,39.83
2023-03-11T07:54:13.877Z,42.38
2023-03-11T07:56:45.676Z,43.31
2023-03-11T07:59:12.613Z,43.97
2023-03-11T08:01:41.331Z,44.42
2023-03-11T08:04:14.190Z,44.04
2023-03-11T08:06:46.336Z,45.15
2023-03-11T08:09:13.568Z,43.21
2023-03-11T08:11:40.728Z,40.78
2023-03-11T08:14:10.464Z,40.33
2023-03-11T08:16:43.856Z,41.76
2023-03-11T08:19:14.703Z,43.44
2023-03-11T08:21:41.685Z,45.14
2023-03-11T08:24:16.662Z,45.44
2023-03-11T08:26:46.501Z,42.42
2023-03-11T08:29:13.458Z,42.95
2023-03-11T08:31:40.464Z,39.33
2023-03-11T08:34:12.437Z,36.69
2023-03-11T08:36:39.515Z,33.46
2023-03-11T08:39:06.958Z,33.67
2023-03-11T08:41:34.120Z,31.44
2023-03-11T08:44:04.080Z,30.91
2023-03-11T08:46:35.787Z,28.87
2023-03-11T08:49:04.299Z,27.96
2023-03-11T08:51:34.242Z,28.57
2023-03-11T08:54:07.793Z,28.92
2023-03-11T08:56:34.665Z,27.63
2023-03-11T08:59:02.038Z,27.13
2023-03-11T09:01:30.192Z,26.10
2023-03-11T09:03:57.586Z,25.33
2023-03-11T09:06:30.410Z,25.38
2023-03-11T09:09:07.361Z,26.23
2023-03-11T09:11:38.762Z,25.57
2023-03-11T09:14:05.854Z,25.03
2023-03-11T09:16:33.667Z,25.16
2023-03-11T09:19:06.950Z,25.12
2023-03-11T09:21:38.066Z,24.05
2023-03-11T09:24:08.632Z,23.09
2023-03-11T09:26:39.065Z,23.01
2023-03-11T09:29:08.358Z,23.92
2023-03-11T09:31:38.709Z,23.44
2023-03-11T09:34:06.482Z,22.34
2023-03-11T09:36:33.545Z,23.42
2023-03-11T09:39:03.880Z,21.74
2023-03-11T09:41:58.412Z,20.57
2023-03-11T09:44:35.874Z,21.12
2023-03-11T09:47:38.397Z,20.84
2023-03-11T09:50:21.416Z,21.36
2023-03-11T09:53:10.215Z,20.93
2023-03-11T09:56:02.783Z,20.56
2023-03-11T09:58:34.704Z,20.60
2023-03-11T10:01:27.615Z,19.86
2023-03-11T10:04:27.081Z,19.75
2023-03-11T10:06:56.950Z,20.25
2023-03-11T10:09:58.894Z,18.92
2023-03-11T10:13:07.218Z,19.44
2023-03-11T10:15:59.878Z,18.75
2023-03-11T10:18:52.873Z,18.46
2023-03-11T10:22:23.959Z,18.71
2023-03-11T10:25:07.591Z,17.84
2023-03-11T10:28:00.243Z,19.55
2023-03-11T10:30:36.591Z,18.08
2023-03-11T10:33:21.919Z,17.85
2023-03-11T10:35:57.909Z,18.49
2023-03-11T10:38:32.393Z,19.79
2023-03-11T10:41:10.037Z,19.11
2023-03-11T10:44:04.451Z,18.00
2023-03-11T10:46:31.668Z,18.26
2023-03-11T10:48:58.680Z,19.79
2023-03-11T10:51:34.232Z,19.48
2023-03-11T10:54:03.567Z,18.77
2023-03-11T10:56:42.887Z,19.15
2023-03-11T10:59:48.379Z,19.39
2023-03-11T11:02:34.288Z,18.68
2023-03-11T11:05:22.175Z,19.19
2023-03-11T11:08:16.078Z,18.52
2023-03-11T11:11:01.906Z,17.62
2023-03-11T11:13:32.500Z,18.48
2023-03-11T11:16:18.928Z,17.73
2023-03-11T11:18:50.025Z,19.01
2023-03-11T11:21:35.219Z,18.83
2023-03-11T11:24:18.952Z,18.48
2023-03-11T11:27:21.435Z,19.01
2023-03-11T11:30:15.444Z,18.05
2023-03-11T11:32:42.961Z,18.15
2023-03-11T11:35:22.574Z,18.90
2023-03-11T11:37:54.857Z,19.76
2023-03-11T11:40:36.863Z,19.66
2023-03-11T11:43:18.761Z,17.36
2023-03-11T11:46:10.998Z,18.33
2023-03-11T11:49:02.631Z,18.18
2023-03-11T11:51:42.020Z,18.34
2023-03-11T11:54:30.729Z,18.60
2023-03-11T11:57:02.170Z,18.39
2023-03-11T11:59:30.838Z,20.01
2023-03-11T12:02:25.197Z,19.93
2023-03-11T12:05:21.400Z,19.37
2023-03-11T12:08:09.062Z,18.77
2023-03-11T12:10:59.188Z,18.70
2023-03-11T12:13:34.980Z,18.01
2023-03-11T12:16:39.957Z,17.48
2023-03-11T12:19:14.059Z,19.40
2023-03-11T12:22:36.954Z,19.70
2023-03-11T12:25:37.095Z,19.86
2023-03-11T12:28:16.087Z,20.25
2023-03-11T12:30:55.131Z,22.07
2023-03-11T12:33:53.891Z,22.11
2023-03-11T12:36:43.963Z,20.94
2023-03-11T12:39:25.159Z,21.40
2023-03-11T12:42:10.905Z,20.47
2023-03-11T12:44:39.496Z,19.57
2023-03-11T12:47:12.152Z,19.47
2023-03-11T12:49:40.783Z,18.94
2023-03-11T12:52:13.476Z,18.93
2023-03-11T12:54:40.554Z,20.25
2023-03-11T12:57:37.302Z,21.17
2023-03-11T13:00:46.406Z,21.28
2023-03-11T13:03:34.584Z,22.04
2023-03-11T13:06:27.971Z,21.44
2023-03-11T13:08:57.585Z,21.59
2023-03-11T13:11:35.853Z,21.63
2023-03-11T13:14:13.096Z,22.06
2023-03-11T13:16:40.932Z,22.39
2023-03-11T13:19:26.571Z,23.42
2023-03-11T13:21:55.076Z,23.29
2023-03-11T13:24:30.141Z,22.36
2023-03-11T13:26:56.977Z,21.40
2023-03-11T13:29:29.593Z,22.35
2023-03-11T13:32:17.577Z,23.69
2023-03-11T13:34:56.005Z,24.15
2023-03-11T13:38:14.932Z,25.48
2023-03-11T13:40:47.085Z,24.00
2023-03-11T13:43:21.201Z,25.24
2023-03-11T13:46:04.495Z,24.80
2023-03-11T13:48:42.127Z,25.49
2023-03-11T13:51:20.549Z,24.98
2023-03-11T13:54:17.764Z,26.46
2023-03-11T13:56:51.085Z,29.06
2023-03-11T13:59:24.741Z,29.38
2023-03-11T14:01:59.866Z,28.88
2023-03-11T14:04:33.756Z,27.72
2023-03-11T14:07:00.868Z,26.62
2023-03-11T14:09:28.931Z,26.48
2023-03-11T14:12:05.434Z,25.70
2023-03-11T14:14:55.247Z,25.41
2023-03-11T14:17:22.296Z,25.22
2023-03-11T14:20:18.278Z,26.45
2023-03-11T14:22:52.231Z,25.78
2023-03-11T14:25:36.924Z,26.23
2023-03-11T14:28:23.114Z,25.24
2023-03-11T14:31:04.359Z,26.63
2023-03-11T14:33:39.700Z,27.25
2023-03-11T14:36:16.904Z,29.37
2023-03-11T14:38:47.145Z,29.13
2023-03-11T14:41:17.472Z,30.59
2023-03-11T14:43:51.272Z,32.74
2023-03-11T14:46:28.473Z,36.04
2023-03-11T14:48:57.541Z,36.69
2023-03-11T14:51:33.320Z,36.41
2023-03-11T14:54:24.563Z,33.01
2023-03-11T14:57:17.364Z,31.85
2023-03-11T14:59:48.702Z,33.19
2023-03-11T15:02:23.676Z,31.87
2023-03-11T15:04:54.555Z,31.59
2023-03-11T15:07:24.570Z,31.44
2023-03-11T15:09:51.659Z,31.07
2023-03-11T15:12:35.362Z,32.07
2023-03-11T15:15:03.066Z,32.45
2023-03-11T15:17:41.280Z,32.34
2023-03-11T15:20:35.513Z,32.45
2023-03-11T15:23:06.680Z,33.54
2023-03-11T15:25:38.712Z,33.60
2023-03-11T15:28:28.994Z,35.01
2023-03-11T15:31:35.274Z,35.64
2023-03-11T15:34:22.275Z,34.69
2023-03-11T15:36:50.334Z,33.69
2023-03-11T15:39:29.057Z,35.46
2023-03-11T15:42:07.930Z,37.26
2023-03-11T15:44:40.788Z,40.14
2023-03-11T15:47:22.679Z,42.16
2023-03-11T15:49:50.791Z,42.85
2023-03-11T15:52:19.362Z,44.23
2023-03-11T15:54:55.004Z,45.54
2023-03-11T15:57:29.726Z,45.79
2023-03-11T15:59:59.270Z,45.93
2023-03-11T16:02:31.460Z,46.87
2023-03-11T16:05:00.563Z,47.06
2023-03-11T16:07:39.125Z,48.01
2023-03-11T16:10:09.350Z,50.02
2023-03-11T16:12:36.278Z,48.97
2023-03-11T16:15:04.262Z,49.09
2023-03-11T16:17:46.856Z,49.65
2023-03-11T16:20:16.698Z,51.05
2023-03-11T16:22:43.713Z,50.79
2023-03-11T16:25:21.665Z,52.57
2023-03-11T16:27:51.235Z,51.97
2023-03-11T16:30:21.940Z,53.38
2023-03-11T16:32:49.288Z,54.08
2023-03-11T16:35:16.593Z,53.26
2023-03-11T16:37:43.675Z,54.43
2023-03-11T16:40:15.978Z,54.50
2023-03-11T16:42:43.778Z,54.67
2023-03-11T16:45:20.352Z,55.44
2023-03-11T16:47:47.376Z,54.67
2023-03-11T16:50:14.910Z,54.07
2023-03-11T16:52:42.198Z,54.46
2023-03-11T16:55:09.950Z,54.07
2023-03-11T16:57:39.719Z,55.05
2023-03-11T17:00:09.939Z,55.03
2023-03-11T17:02:39.710Z,55.50
2023-03-11T17:05:11.047Z,56.22
2023-03-11T17:07:39.672Z,54.84
2023-03-11T17:10:12.000Z,55.91
2023-03-11T17:12:38.944Z,56.44
2023-03-11T17:15:09.492Z,56.66
2023-03-11T17:17:36.529Z,57.02
2023-03-11T17:20:07.842Z,56.93
2023-03-11T17:22:34.965Z,57.38
2023-03-11T17:25:05.256Z,56.73
2023-03-11T17:27:32.685Z,57.11
2023-03-11T17:30:01.804Z,57.75
2023-03-11T17:32:29.778Z,57.19
2023-03-11T17:34:56.774Z,57.58
2023-03-11T17:37:23.988Z,57.52
2023-03-11T17:39:51.012Z,57.98
2023-03-11T17:42:18.086Z,58.29
2023-03-11T17:44:51.692Z,58.02
2023-03-11T17:47:20.291Z,59.09
2023-03-11T17:49:50.553Z,63.99
2023-03-11T17:52:17.876Z,66.42
2023-03-11T17:54:45.824Z,66.39
2023-03-11T17:57:12.895Z,68.04
2023-03-11T17:59:39.964Z,68.88
2023-03-11T18:02:08.372Z,69.61
2023-03-11T18:04:39.120Z,69.68
2023-03-11T18:07:09.113Z,69.11
2023-03-11T18:09:38.564Z,70.25
2023-03-11T18:12:06.794Z,71.53
2023-03-11T18:14:36.000Z,71.94
2023-03-11T18:17:05.592Z,73.06
2023-03-11T18:19:35.826Z,73.39
2023-03-11T18:22:05.009Z,73.08
2023-03-11T18:24:31.945Z,73.72
2023-03-11T18:26:59.118Z,74.51
2023-03-11T18:29:26.064Z,73.18
2023-03-11T18:31:53.269Z,74.26
2023-03-11T18:34:23.285Z,74.58
2023-03-11T18:36:50.303Z,74.37
2023-03-11T18:39:21.802Z,73.61
2023-03-11T18:41:48.806Z,74.80
2023-03-11T18:44:16.364Z,74.72
2023-03-11T18:46:43.499Z,74.46
2023-03-11T18:49:13.598Z,75.64
2023-03-11T18:51:45.780Z,75.90
2023-03-11T18:54:14.958Z,76.25
2023-03-11T18:56:45.079Z,76.76
2023-03-11T18:59:13.252Z,76.05
2023-03-11T19:01:40.212Z,77.10
2023-03-11T19:04:09.833Z,76.66
2023-03-11T19:06:40.017Z,77.01
2023-03-11T19:09:11.009Z,76.92
2023-03-11T19:11:38.139Z,76.31
2023-03-11T19:14:05.131Z,76.56
2023-03-11T19:16:32.242Z,76.84
2023-03-11T19:19:03.908Z,75.60
2023-03-11T19:21:32.990Z,75.88
2023-03-11T19:24:00.313Z,75.40
2023-03-11T19:26:43.122Z,75.55
2023-03-11T19:29:14.347Z,75.22
2023-03-11T19:31:46.282Z,76.46
2023-03-11T19:34:13.313Z,76.72
2023-03-11T19:36:40.667Z,76.75
2023-03-11T19:39:08.050Z,75.69
2023-03-11T19:41:35.100Z,76.30
2023-03-11T19:44:04.263Z,75.61
2023-03-11T19:46:35.990Z,75.61
2023-03-11T19:49:05.457Z,76.75
2023-03-11T19:51:48.461Z,77.29
2023-03-11T19:54:17.157Z,77.06
2023-03-11T19:56:44.146Z,78.18
2023-03-11T19:59:11.369Z,77.95
2023-03-11T20:01:38.418Z,77.90
2023-03-11T20:04:06.128Z,78.24
2023-03-11T20:06:33.167Z,78.04
2023-03-11T20:09:00.189Z,77.83
2023-03-11T20:11:27.179Z,77.96
2023-03-11T20:13:54.165Z,78.39
2023-03-11T20:16:21.231Z,77.68
2023-03-11T20:18:51.738Z,77.93
2023-03-11T20:21:19.366Z,78.68
2023-03-11T20:23:48.993Z,78.76
2023-03-11T20:26:20.840Z,78.62
2023-03-11T20:28:48.040Z,78.81
2023-03-11T20:31:23.590Z,78.22
2023-03-11T20:33:51.869Z,78.20
2023-03-11T20:36:27.412Z,78.36
2023-03-11T20:38:55.749Z,79.78
2023-03-11T20:41:24.443Z,79.25
2023-03-11T20:43:56.238Z,79.40
2023-03-11T20:46:26.042Z,78.72
2023-03-11T20:48:53.371Z,79.26
2023-03-11T20:51:23.218Z,79.47
2023-03-11T20:53:52.713Z,80.46
2023-03-11T20:56:24.706Z,80.62
2023-03-11T20:58:56.143Z,80.06
2023-03-11T21:01:26.111Z,80.65
2023-03-11T21:03:58.413Z,79.45
2023-03-11T21:06:37.920Z,79.36
2023-03-11T21:09:12.330Z,80.07
2023-03-11T21:11:39.751Z,78.76
2023-03-11T21:14:07.972Z,78.42
2023-03-11T21:16:37.069Z,78.27
2023-03-11T21:19:08.789Z,78.07
2023-03-11T21:21:38.859Z,78.19
2023-03-11T21:24:06.344Z,77.65
2023-03-11T21:26:34.672Z,77.74
2023-03-11T21:29:01.891Z,75.88
2023-03-11T21:31:29.947Z,77.46
2023-03-11T21:34:01.512Z,77.38
2023-03-11T21:36:29.494Z,77.53
2023-03-11T21:38:56.514Z,76.93
2023-03-11T21:41:26.652Z,76.79
2023-03-11T21:43:58.747Z,76.82
2023-03-11T21:46:31.064Z,76.40
2023-03-11T21:48:59.968Z,76.24
2023-03-11T21:51:27.464Z,75.88
2023-03-11T21:53:54.866Z,76.39
2023-03-11T21:56:22.289Z,75.60
2023-03-11T21:58:51.441Z,75.50
2023-03-11T22:01:21.137Z,76.57
2023-03-11T22:03:50.874Z,76.05
2023-03-11T22:06:18.533Z,76.25
2023-03-11T22:08:45.605Z,76.28
2023-03-11T22:11:17.678Z,76.48
2023-03-11T22:13:51.334Z,76.39
2023-03-11T22:16:20.023Z,75.93
2023-03-11T22:18:47.769Z,76.09
2023-03-11T22:21:16.482Z,75.60
2023-03-11T22:23:45.048Z,75.36
2023-03-11T22:26:12.159Z,75.08
2023-03-11T22:28:41.648Z,75.47
2023-03-11T22:31:12.258Z,74.69
2023-03-11T22:33:39.311Z,74.37
2023-03-11T22:36:09.243Z,74.47
2023-03-11T22:38:37.079Z,75.50
2023-03-11T22:41:07.673Z,76.00
2023-03-11T22:43:36.365Z,75.31
2023-03-11T22:46:04.998Z,75.54
2023-03-11T22:48:33.793Z,75.87
2023-03-11T22:51:00.905Z,75.70
2023-03-11T22:53:27.878Z,75.61
2023-03-11T22:55:57.175Z,74.83
2023-03-11T22:58:24.080Z,73.76
2023-03-11T23:00:51.081Z,74.18
2023-03-11T23:03:22.739Z,74.72
2023-03-11T23:05:49.838Z,75.05
2023-03-11T23:08:19.373Z,75.61
2023-03-11T23:10:47.724Z,76.04
2023-03-11T23:13:17.923Z,75.76
2023-03-11T23:15:47.223Z,75.29
2023-03-11T23:18:15.918Z,76.23
2023-03-11T23:20:44.947Z,77.21
2023-03-11T23:23:13.217Z,76.20
2023-03-11T23:25:41.535Z,77.18
2023-03-11T23:28:11.121Z,78.12
2023-03-11T23:30:40.571Z,78.61
2023-03-11T23:33:07.562Z,79.58
2023-03-11T23:35:34.695Z,79.80
2023-03-11T23:38:01.745Z,79.67
2023-03-11T23:40:28.698Z,80.24
2023-03-11T23:43:00.157Z,79.95
2023-03-11T23:45:29.656Z,80.09
2023-03-11T23:47:56.549Z,79.36
2023-03-11T23:50:23.624Z,78.81
2023-03-11T23:52:50.605Z,77.93
2023-03-11T23:55:17.662Z,79.16
2023-03-11T23:57:44.856Z,78.05
